sensor_id;sensor_type;location;lat;lon;timestamp;P1;durP1;ratioP1;P2;durP2;ratioP2
5869;SDS011;2961;47.702;9.410;2022-07-21T00:00:20;26.27;;;22.37;;
5869;SDS011;2961;47.702;9.410;2022-07-21T00:02:48;31.07;;;23.17;;
5869;SDS011;2961;47.702;9.410;2022-07-21T00:05:15;24.70;;;21.63;;
5869;SDS011;2961;47.702;9.410;2022-07-21T00:07:43;23.83;;;21.40;;
5869;SDS011;2961;47.702;9.410;2022-07-21T00:10:11;24.00;;;20.77;;
5869;SDS011;2961;47.702;9.410;2022-07-21T00:12:39;25.83;;;21.73;;
5869;SDS011;2961;47.702;9.410;2022-07-21T00:15:07;27.33;;;20.57;;
5869;SDS011;2961;47.702;9.410;2022-07-21T00:17:35;27.90;;;23.03;;
5869;SDS011;2961;47.702;9.410;2022-07-21T00:20:03;23.27;;;20.80;;
5869;SDS011;2961;47.702;9.410;2022-07-21T00:22:32;26.60;;;19.93;;
5869;SDS011;2961;47.702;9.410;2022-07-21T00:24:59;32.20;;;21.43;;
5869;SDS011;2961;47.702;9.410;2022-07-21T00:27:27;24.83;;;21.93;;
5869;SDS011;2961;47.702;9.410;2022-07-21T00:29:54;31.13;;;20.50;;
5869;SDS011;2961;47.702;9.410;2022-07-21T00:32:21;25.00;;;22.40;;
5869;SDS011;2961;47.702;9.410;2022-07-21T00:34:48;27.60;;;21.47;;
5869;SDS011;2961;47.702;9.410;2022-07-21T00:37:14;22.07;;;19.90;;
5869;SDS011;2961;47.702;9.410;2022-07-21T00:39:41;25.53;;;20.27;;
5869;SDS011;2961;47.702;9.410;2022-07-21T00:42:08;25.20;;;19.60;;
5869;SDS011;2961;47.702;9.410;2022-07-21T00:44:47;22.27;;;20.03;;
5869;SDS011;2961;47.702;9.410;2022-07-21T00:47:14;24.63;;;19.40;;
5869;SDS011;2961;47.702;9.410;2022-07-21T00:49:41;20.17;;;18.17;;
5869;SDS011;2961;47.702;9.410;2022-07-21T00:52:09;22.10;;;19.80;;
5869;SDS011;2961;47.702;9.410;2022-07-21T00:54:36;22.27;;;18.40;;
5869;SDS011;2961;47.702;9.410;2022-07-21T00:57:03;20.87;;;18.70;;
5869;SDS011;2961;47.702;9.410;2022-07-21T00:59:31;24.00;;;18.37;;
5869;SDS011;2961;47.702;9.410;2022-07-21T01:02:00;21.93;;;19.60;;
5869;SDS011;2961;47.702;9.410;2022-07-21T01:04:27;21.20;;;19.13;;
5869;SDS011;2961;47.702;9.410;2022-07-21T01:06:53;23.40;;;21.10;;
5869;SDS011;2961;47.702;9.410;2022-07-21T01:09:21;22.10;;;19.73;;
5869;SDS011;2961;47.702;9.410;2022-07-21T01:11:48;21.50;;;19.47;;
5869;SDS011;2961;47.702;9.410;2022-07-21T01:14:15;21.77;;;19.50;;
5869;SDS011;2961;47.702;9.410;2022-07-21T01:16:42;22.33;;;19.97;;
5869;SDS011;2961;47.702;9.410;2022-07-21T01:19:10;18.83;;;16.83;;
5869;SDS011;2961;47.702;9.410;2022-07-21T01:21:39;19.60;;;17.63;;
5869;SDS011;2961;47.702;9.410;2022-07-21T01:24:07;21.30;;;18.20;;
5869;SDS011;2961;47.702;9.410;2022-07-21T01:26:39;23.00;;;19.13;;
5869;SDS011;2961;47.702;9.410;2022-07-21T01:29:07;26.60;;;19.53;;
5869;SDS011;2961;47.702;9.410;2022-07-21T01:31:35;26.20;;;20.60;;
5869;SDS011;2961;47.702;9.410;2022-07-21T01:34:02;21.70;;;19.30;;
5869;SDS011;2961;47.702;9.410;2022-07-21T01:36:30;23.63;;;20.53;;
5869;SDS011;2961;47.702;9.410;2022-07-21T01:38:58;23.60;;;21.07;;
5869;SDS011;2961;47.702;9.410;2022-07-21T01:41:43;25.10;;;22.40;;
5869;SDS011;2961;47.702;9.410;2022-07-21T01:44:10;24.43;;;21.83;;
5869;SDS011;2961;47.702;9.410;2022-07-21T01:46:39;28.03;;;21.53;;
5869;SDS011;2961;47.702;9.410;2022-07-21T01:49:08;25.60;;;22.80;;
5869;SDS011;2961;47.702;9.410;2022-07-21T01:51:36;24.70;;;22.10;;
5869;SDS011;2961;47.702;9.410;2022-07-21T01:54:05;23.00;;;20.70;;
5869;SDS011;2961;47.702;9.410;2022-07-21T01:56:34;25.93;;;22.50;;
5869;SDS011;2961;47.702;9.410;2022-07-21T01:59:01;25.80;;;22.10;;
5869;SDS011;2961;47.702;9.410;2022-07-21T02:01:29;23.30;;;20.83;;
5869;SDS011;2961;47.702;9.410;2022-07-21T02:04:00;25.30;;;20.00;;
5869;SDS011;2961;47.702;9.410;2022-07-21T02:06:29;21.83;;;19.63;;
5869;SDS011;2961;47.702;9.410;2022-07-21T02:08:56;21.73;;;19.40;;
5869;SDS011;2961;47.702;9.410;2022-07-21T02:11:24;22.93;;;19.83;;
5869;SDS011;2961;47.702;9.410;2022-07-21T02:13:51;21.70;;;19.60;;
5869;SDS011;2961;47.702;9.410;2022-07-21T02:16:18;24.37;;;21.13;;
5869;SDS011;2961;47.702;9.410;2022-07-21T02:18:45;23.27;;;20.87;;
5869;SDS011;2961;47.702;9.410;2022-07-21T02:21:12;22.23;;;19.90;;
5869;SDS011;2961;47.702;9.410;2022-07-21T02:23:39;26.87;;;23.00;;
5869;SDS011;2961;47.702;9.410;2022-07-21T02:26:06;27.30;;;20.33;;
5869;SDS011;2961;47.702;9.410;2022-07-21T02:28:34;21.37;;;19.37;;
5869;SDS011;2961;47.702;9.410;2022-07-21T02:31:01;22.70;;;20.43;;
5869;SDS011;2961;47.702;9.410;2022-07-21T02:33:28;20.20;;;18.10;;
5869;SDS011;2961;47.702;9.410;2022-07-21T02:35:55;23.67;;;20.97;;
5869;SDS011;2961;47.702;9.410;2022-07-21T02:38:22;23.23;;;19.43;;
5869;SDS011;2961;47.702;9.410;2022-07-21T02:40:49;27.83;;;20.97;;
5869;SDS011;2961;47.702;9.410;2022-07-21T02:43:15;21.90;;;19.60;;
5869;SDS011;2961;47.702;9.410;2022-07-21T02:45:44;21.70;;;19.50;;
5869;SDS011;2961;47.702;9.410;2022-07-21T02:48:11;26.87;;;20.27;;
5869;SDS011;2961;47.702;9.410;2022-07-21T02:50:39;22.10;;;19.87;;
5869;SDS011;2961;47.702;9.410;2022-07-21T02:53:08;20.73;;;18.63;;
5869;SDS011;2961;47.702;9.410;2022-07-21T02:55:36;20.73;;;18.73;;
5869;SDS011;2961;47.702;9.410;2022-07-21T02:58:04;19.63;;;17.60;;
5869;SDS011;2961;47.702;9.410;2022-07-21T03:00:34;21.23;;;16.77;;
5869;SDS011;2961;47.702;9.410;2022-07-21T03:03:03;20.73;;;18.20;;
5869;SDS011;2961;47.702;9.410;2022-07-21T03:05:30;19.37;;;17.37;;
5869;SDS011;2961;47.702;9.410;2022-07-21T03:07:57;20.27;;;18.20;;
5869;SDS011;2961;47.702;9.410;2022-07-21T03:10:25;23.60;;;17.73;;
5869;SDS011;2961;47.702;9.410;2022-07-21T03:12:51;19.90;;;17.77;;
5869;SDS011;2961;47.702;9.410;2022-07-21T03:15:18;22.60;;;18.57;;
5869;SDS011;2961;47.702;9.410;2022-07-21T03:17:45;20.00;;;18.00;;
5869;SDS011;2961;47.702;9.410;2022-07-21T03:20:13;20.27;;;17.07;;
5869;SDS011;2961;47.702;9.410;2022-07-21T03:22:41;21.00;;;18.80;;
5869;SDS011;2961;47.702;9.410;2022-07-21T03:25:08;20.17;;;18.10;;
5869;SDS011;2961;47.702;9.410;2022-07-21T03:27:36;19.80;;;17.80;;
5869;SDS011;2961;47.702;9.410;2022-07-21T03:30:04;22.07;;;18.77;;
5869;SDS011;2961;47.702;9.410;2022-07-21T03:32:33;21.90;;;19.60;;
5869;SDS011;2961;47.702;9.410;2022-07-21T03:35:00;21.77;;;18.53;;
5869;SDS011;2961;47.702;9.410;2022-07-21T03:37:29;20.03;;;18.13;;
5869;SDS011;2961;47.702;9.410;2022-07-21T03:39:56;23.10;;;19.40;;
5869;SDS011;2961;47.702;9.410;2022-07-21T03:42:23;21.17;;;18.30;;
5869;SDS011;2961;47.702;9.410;2022-07-21T03:44:50;20.63;;;18.50;;
5869;SDS011;2961;47.702;9.410;2022-07-21T03:47:17;21.70;;;18.97;;
5869;SDS011;2961;47.702;9.410;2022-07-21T03:49:44;22.17;;;17.63;;
5869;SDS011;2961;47.702;9.410;2022-07-21T03:52:10;19.73;;;17.70;;
5869;SDS011;2961;47.702;9.410;2022-07-21T03:54:39;20.90;;;18.90;;
5869;SDS011;2961;47.702;9.410;2022-07-21T03:57:05;20.07;;;17.63;;
5869;SDS011;2961;47.702;9.410;2022-07-21T03:59:32;20.57;;;18.37;;
5869;SDS011;2961;47.702;9.410;2022-07-21T04:01:59;23.87;;;17.60;;
5869;SDS011;2961;47.702;9.410;2022-07-21T04:04:26;22.73;;;20.27;;
5869;SDS011;2961;47.702;9.410;2022-07-21T04:06:53;20.60;;;18.50;;
5869;SDS011;2961;47.702;9.410;2022-07-21T04:09:19;25.73;;;18.63;;
5869;SDS011;2961;47.702;9.410;2022-07-21T04:11:48;23.33;;;20.00;;
5869;SDS011;2961;47.702;9.410;2022-07-21T04:14:15;23.77;;;19.57;;
5869;SDS011;2961;47.702;9.410;2022-07-21T04:16:41;23.60;;;18.60;;
5869;SDS011;2961;47.702;9.410;2022-07-21T04:19:08;19.80;;;17.70;;
5869;SDS011;2961;47.702;9.410;2022-07-21T04:21:35;21.43;;;19.13;;
5869;SDS011;2961;47.702;9.410;2022-07-21T04:24:02;25.83;;;18.27;;
5869;SDS011;2961;47.702;9.410;2022-07-21T04:26:29;18.90;;;17.00;;
5869;SDS011;2961;47.702;9.410;2022-07-21T04:28:57;19.10;;;17.20;;
5869;SDS011;2961;47.702;9.410;2022-07-21T04:31:24;19.63;;;17.67;;
5869;SDS011;2961;47.702;9.410;2022-07-21T04:33:51;20.10;;;17.37;;
5869;SDS011;2961;47.702;9.410;2022-07-21T04:36:18;20.07;;;18.07;;
5869;SDS011;2961;47.702;9.410;2022-07-21T04:38:44;25.90;;;17.60;;
5869;SDS011;2961;47.702;9.410;2022-07-21T04:41:13;20.30;;;18.10;;
5869;SDS011;2961;47.702;9.410;2022-07-21T04:43:40;22.27;;;19.83;;
5869;SDS011;2961;47.702;9.410;2022-07-21T04:46:08;22.80;;;18.87;;
5869;SDS011;2961;47.702;9.410;2022-07-21T04:48:35;22.80;;;20.40;;
5869;SDS011;2961;47.702;9.410;2022-07-21T04:51:02;24.33;;;19.77;;
5869;SDS011;2961;47.702;9.410;2022-07-21T04:53:29;22.83;;;20.43;;
5869;SDS011;2961;47.702;9.410;2022-07-21T04:55:55;27.33;;;19.33;;
5869;SDS011;2961;47.702;9.410;2022-07-21T04:58:22;27.80;;;20.27;;
5869;SDS011;2961;47.702;9.410;2022-07-21T05:00:49;22.47;;;20.07;;
5869;SDS011;2961;47.702;9.410;2022-07-21T05:03:18;21.07;;;18.90;;
5869;SDS011;2961;47.702;9.410;2022-07-21T05:05:44;25.37;;;20.37;;
5869;SDS011;2961;47.702;9.410;2022-07-21T05:08:11;20.97;;;18.87;;
5869;SDS011;2961;47.702;9.410;2022-07-21T05:10:38;21.37;;;18.60;;
5869;SDS011;2961;47.702;9.410;2022-07-21T05:13:06;22.60;;;19.57;;
5869;SDS011;2961;47.702;9.410;2022-07-21T05:15:33;22.90;;;20.43;;
5869;SDS011;2961;47.702;9.410;2022-07-21T05:18:00;23.50;;;20.60;;
5869;SDS011;2961;47.702;9.410;2022-07-21T05:20:28;23.07;;;20.63;;
5869;SDS011;2961;47.702;9.410;2022-07-21T05:22:55;21.47;;;19.23;;
5869;SDS011;2961;47.702;9.410;2022-07-21T05:25:22;21.23;;;18.60;;
5869;SDS011;2961;47.702;9.410;2022-07-21T05:27:51;21.73;;;19.53;;
5869;SDS011;2961;47.702;9.410;2022-07-21T05:30:18;23.10;;;20.80;;
5869;SDS011;2961;47.702;9.410;2022-07-21T05:32:44;24.30;;;19.90;;
5869;SDS011;2961;47.702;9.410;2022-07-21T05:35:11;22.40;;;20.10;;
5869;SDS011;2961;47.702;9.410;2022-07-21T05:37:40;20.70;;;18.60;;
5869;SDS011;2961;47.702;9.410;2022-07-21T05:40:07;19.57;;;17.60;;
5869;SDS011;2961;47.702;9.410;2022-07-21T05:42:35;28.23;;;19.70;;
5869;SDS011;2961;47.702;9.410;2022-07-21T05:45:03;25.17;;;18.30;;
5869;SDS011;2961;47.702;9.410;2022-07-21T05:47:31;23.30;;;18.90;;
5869;SDS011;2961;47.702;9.410;2022-07-21T05:49:58;22.93;;;19.17;;
5869;SDS011;2961;47.702;9.410;2022-07-21T05:52:25;21.63;;;19.37;;
5869;SDS011;2961;47.702;9.410;2022-07-21T05:54:53;19.03;;;17.23;;
5869;SDS011;2961;47.702;9.410;2022-07-21T05:57:20;20.60;;;17.53;;
5869;SDS011;2961;47.702;9.410;2022-07-21T05:59:47;23.30;;;19.10;;
5869;SDS011;2961;47.702;9.410;2022-07-21T06:02:14;18.20;;;16.60;;
5869;SDS011;2961;47.702;9.410;2022-07-21T06:04:41;20.37;;;18.23;;
5869;SDS011;2961;47.702;9.410;2022-07-21T06:07:08;23.13;;;18.10;;
5869;SDS011;2961;47.702;9.410;2022-07-21T06:09:34;21.00;;;19.00;;
5869;SDS011;2961;47.702;9.410;2022-07-21T06:12:03;20.33;;;17.97;;
5869;SDS011;2961;47.702;9.410;2022-07-21T06:14:30;20.30;;;16.55;;
5869;SDS011;2961;47.702;9.410;2022-07-21T06:16:57;19.37;;;17.07;;
5869;SDS011;2961;47.702;9.410;2022-07-21T06:19:24;17.70;;;15.90;;
5869;SDS011;2961;47.702;9.410;2022-07-21T06:21:50;21.37;;;16.80;;
5869;SDS011;2961;47.702;9.410;2022-07-21T06:24:17;21.00;;;16.33;;
5869;SDS011;2961;47.702;9.410;2022-07-21T06:26:47;21.00;;;17.30;;
5869;SDS011;2961;47.702;9.410;2022-07-21T06:29:15;19.67;;;17.37;;
5869;SDS011;2961;47.702;9.410;2022-07-21T06:31:42;22.63;;;18.30;;
5869;SDS011;2961;47.702;9.410;2022-07-21T06:34:09;19.20;;;17.10;;
5869;SDS011;2961;47.702;9.410;2022-07-21T06:36:35;22.07;;;16.53;;
5869;SDS011;2961;47.702;9.410;2022-07-21T06:39:02;18.50;;;16.60;;
5869;SDS011;2961;47.702;9.410;2022-07-21T06:41:29;19.20;;;16.90;;
5869;SDS011;2961;47.702;9.410;2022-07-21T06:43:56;19.30;;;17.40;;
5869;SDS011;2961;47.702;9.410;2022-07-21T06:46:24;18.90;;;17.00;;
5869;SDS011;2961;47.702;9.410;2022-07-21T06:48:51;26.77;;;17.63;;
5869;SDS011;2961;47.702;9.410;2022-07-21T06:51:18;18.83;;;16.93;;
5869;SDS011;2961;47.702;9.410;2022-07-21T06:53:45;24.03;;;18.13;;
5869;SDS011;2961;47.702;9.410;2022-07-21T06:56:12;19.73;;;17.73;;
5869;SDS011;2961;47.702;9.410;2022-07-21T06:58:39;19.57;;;17.53;;
5869;SDS011;2961;47.702;9.410;2022-07-21T07:01:05;21.43;;;17.90;;
5869;SDS011;2961;47.702;9.410;2022-07-21T07:03:34;19.90;;;17.13;;
5869;SDS011;2961;47.702;9.410;2022-07-21T07:06:01;18.63;;;16.97;;
5869;SDS011;2961;47.702;9.410;2022-07-21T07:08:28;18.47;;;16.67;;
5869;SDS011;2961;47.702;9.410;2022-07-21T07:10:55;21.23;;;18.00;;
5869;SDS011;2961;47.702;9.410;2022-07-21T07:13:22;20.13;;;18.13;;
5869;SDS011;2961;47.702;9.410;2022-07-21T07:15:49;21.00;;;17.87;;
5869;SDS011;2961;47.702;9.410;2022-07-21T07:18:16;20.10;;;16.30;;
5869;SDS011;2961;47.702;9.410;2022-07-21T07:20:47;20.23;;;17.80;;
5869;SDS011;2961;47.702;9.410;2022-07-21T07:23:13;18.77;;;16.83;;
5869;SDS011;2961;47.702;9.410;2022-07-21T07:25:40;19.27;;;17.20;;
5869;SDS011;2961;47.702;9.410;2022-07-21T07:28:07;17.07;;;15.37;;
5869;SDS011;2961;47.702;9.410;2022-07-21T07:30:34;19.30;;;17.20;;
5869;SDS011;2961;47.702;9.410;2022-07-21T07:33:02;18.87;;;16.97;;
5869;SDS011;2961;47.702;9.410;2022-07-21T07:35:29;18.20;;;16.30;;
5869;SDS011;2961;47.702;9.410;2022-07-21T07:37:57;20.67;;;17.07;;
5869;SDS011;2961;47.702;9.410;2022-07-21T07:40:24;18.13;;;16.20;;
5869;SDS011;2961;47.702;9.410;2022-07-21T07:42:51;22.67;;;16.93;;
5869;SDS011;2961;47.702;9.410;2022-07-21T07:45:18;17.43;;;15.50;;
5869;SDS011;2961;47.702;9.410;2022-07-21T07:47:46;18.60;;;16.00;;
5869;SDS011;2961;47.702;9.410;2022-07-21T07:50:13;19.73;;;15.90;;
5869;SDS011;2961;47.702;9.410;2022-07-21T07:52:41;22.83;;;16.40;;
5869;SDS011;2961;47.702;9.410;2022-07-21T07:55:11;17.70;;;15.57;;
5869;SDS011;2961;47.702;9.410;2022-07-21T07:57:39;19.00;;;15.70;;
5869;SDS011;2961;47.702;9.410;2022-07-21T08:00:09;15.97;;;14.33;;
5869;SDS011;2961;47.702;9.410;2022-07-21T08:02:38;19.87;;;16.40;;
5869;SDS011;2961;47.702;9.410;2022-07-21T08:05:05;18.30;;;15.77;;
5869;SDS011;2961;47.702;9.410;2022-07-21T08:07:33;18.70;;;15.65;;
5869;SDS011;2961;47.702;9.410;2022-07-21T08:10:02;17.20;;;15.50;;
5869;SDS011;2961;47.702;9.410;2022-07-21T08:12:31;25.70;;;17.13;;
5869;SDS011;2961;47.702;9.410;2022-07-21T08:14:59;22.10;;;16.43;;
5869;SDS011;2961;47.702;9.410;2022-07-21T08:17:25;17.03;;;15.33;;
5869;SDS011;2961;47.702;9.410;2022-07-21T08:19:52;18.63;;;16.73;;
5869;SDS011;2961;47.702;9.410;2022-07-21T08:22:19;20.13;;;14.70;;
5869;SDS011;2961;47.702;9.410;2022-07-21T08:24:46;16.13;;;14.33;;
5869;SDS011;2961;47.702;9.410;2022-07-21T08:27:13;17.33;;;15.13;;
5869;SDS011;2961;47.702;9.410;2022-07-21T08:29:41;16.43;;;14.07;;
5869;SDS011;2961;47.702;9.410;2022-07-21T08:32:08;19.10;;;15.50;;
5869;SDS011;2961;47.702;9.410;2022-07-21T08:34:35;15.90;;;14.47;;
5869;SDS011;2961;47.702;9.410;2022-07-21T08:37:02;21.27;;;15.07;;
5869;SDS011;2961;47.702;9.410;2022-07-21T08:39:29;17.17;;;13.40;;
5869;SDS011;2961;47.702;9.410;2022-07-21T08:41:56;16.73;;;14.30;;
5869;SDS011;2961;47.702;9.410;2022-07-21T08:44:23;20.30;;;14.70;;
5869;SDS011;2961;47.702;9.410;2022-07-21T08:46:52;14.27;;;12.80;;
5869;SDS011;2961;47.702;9.410;2022-07-21T08:49:20;16.00;;;13.90;;
5869;SDS011;2961;47.702;9.410;2022-07-21T08:51:48;16.63;;;14.07;;
5869;SDS011;2961;47.702;9.410;2022-07-21T08:54:16;15.38;;;13.63;;
5869;SDS011;2961;47.702;9.410;2022-07-21T08:56:43;12.73;;;11.37;;
5869;SDS011;2961;47.702;9.410;2022-07-21T08:59:10;15.00;;;13.40;;
5869;SDS011;2961;47.702;9.410;2022-07-21T09:01:37;15.50;;;12.00;;
5869;SDS011;2961;47.702;9.410;2022-07-21T09:04:21;12.00;;;10.73;;
5869;SDS011;2961;47.702;9.410;2022-07-21T09:06:50;13.07;;;11.70;;
5869;SDS011;2961;47.702;9.410;2022-07-21T09:09:21;12.30;;;11.10;;
5869;SDS011;2961;47.702;9.410;2022-07-21T09:11:49;12.07;;;10.87;;
5869;SDS011;2961;47.702;9.410;2022-07-21T09:14:16;12.60;;;11.30;;
5869;SDS011;2961;47.702;9.410;2022-07-21T09:16:47;12.00;;;10.93;;
5869;SDS011;2961;47.702;9.410;2022-07-21T09:19:16;12.30;;;10.50;;
5869;SDS011;2961;47.702;9.410;2022-07-21T09:21:46;16.13;;;11.20;;
5869;SDS011;2961;47.702;9.410;2022-07-21T09:24:14;11.40;;;10.30;;
5869;SDS011;2961;47.702;9.410;2022-07-21T09:26:58;12.47;;;10.10;;
5869;SDS011;2961;47.702;9.410;2022-07-21T09:29:28;10.87;;;9.87;;
5869;SDS011;2961;47.702;9.410;2022-07-21T09:32:11;10.57;;;9.53;;
5869;SDS011;2961;47.702;9.410;2022-07-21T09:34:39;11.03;;;9.83;;
5869;SDS011;2961;47.702;9.410;2022-07-21T09:37:07;10.60;;;9.43;;
5869;SDS011;2961;47.702;9.410;2022-07-21T09:39:45;13.37;;;9.37;;
5869;SDS011;2961;47.702;9.410;2022-07-21T09:42:18;10.90;;;8.57;;
5869;SDS011;2961;47.702;9.410;2022-07-21T09:44:48;8.90;;;8.00;;
5869;SDS011;2961;47.702;9.410;2022-07-21T09:47:16;10.87;;;8.70;;
5869;SDS011;2961;47.702;9.410;2022-07-21T09:49:45;12.50;;;9.87;;
5869;SDS011;2961;47.702;9.410;2022-07-21T09:52:26;8.67;;;7.87;;
5869;SDS011;2961;47.702;9.410;2022-07-21T09:54:55;8.80;;;7.97;;
5869;SDS011;2961;47.702;9.410;2022-07-21T09:57:23;8.87;;;7.93;;
5869;SDS011;2961;47.702;9.410;2022-07-21T09:59:51;9.10;;;8.23;;
5869;SDS011;2961;47.702;9.410;2022-07-21T10:02:19;11.10;;;9.03;;
5869;SDS011;2961;47.702;9.410;2022-07-21T10:04:49;8.17;;;7.47;;
5869;SDS011;2961;47.702;9.410;2022-07-21T10:07:21;9.07;;;8.20;;
5869;SDS011;2961;47.702;9.410;2022-07-21T10:09:50;15.23;;;8.07;;
5869;SDS011;2961;47.702;9.410;2022-07-21T10:12:17;10.00;;;7.80;;
5869;SDS011;2961;47.702;9.410;2022-07-21T10:14:44;9.00;;;7.90;;
5869;SDS011;2961;47.702;9.410;2022-07-21T10:17:12;8.90;;;8.00;;
5869;SDS011;2961;47.702;9.410;2022-07-21T10:19:40;8.33;;;7.43;;
5869;SDS011;2961;47.702;9.410;2022-07-21T10:22:17;9.10;;;7.83;;
5869;SDS011;2961;47.702;9.410;2022-07-21T10:24:51;13.53;;;8.33;;
5869;SDS011;2961;47.702;9.410;2022-07-21T10:27:18;11.57;;;10.20;;
5869;SDS011;2961;47.702;9.410;2022-07-21T10:29:55;10.87;;;9.30;;
5869;SDS011;2961;47.702;9.410;2022-07-21T10:32:26;9.57;;;8.13;;
5869;SDS011;2961;47.702;9.410;2022-07-21T10:34:59;9.83;;;8.07;;
5869;SDS011;2961;47.702;9.410;2022-07-21T10:37:45;10.10;;;8.50;;
5869;SDS011;2961;47.702;9.410;2022-07-21T10:46:04;11.83;;;8.23;;
5869;SDS011;2961;47.702;9.410;2022-07-21T10:48:58;7.60;;;7.00;;
5869;SDS011;2961;47.702;9.410;2022-07-21T10:51:25;7.60;;;6.90;;
5869;SDS011;2961;47.702;9.410;2022-07-21T11:02:46;8.77;;;7.13;;
5869;SDS011;2961;47.702;9.410;2022-07-21T11:05:15;7.45;;;6.45;;
5869;SDS011;2961;47.702;9.410;2022-07-21T11:10:39;7.93;;;7.10;;
5869;SDS011;2961;47.702;9.410;2022-07-21T11:13:07;6.87;;;6.33;;
5869;SDS011;2961;47.702;9.410;2022-07-21T11:15:53;10.83;;;7.37;;
5869;SDS011;2961;47.702;9.410;2022-07-21T11:18:25;8.23;;;6.23;;
5869;SDS011;2961;47.702;9.410;2022-07-21T11:21:03;8.43;;;6.87;;
5869;SDS011;2961;47.702;9.410;2022-07-21T11:23:38;6.67;;;5.83;;
5869;SDS011;2961;47.702;9.410;2022-07-21T11:26:07;6.30;;;5.70;;
5869;SDS011;2961;47.702;9.410;2022-07-21T11:28:34;7.10;;;6.23;;
5869;SDS011;2961;47.702;9.410;2022-07-21T11:31:07;5.80;;;5.30;;
5869;SDS011;2961;47.702;9.410;2022-07-21T11:33:35;6.67;;;6.07;;
5869;SDS011;2961;47.702;9.410;2022-07-21T11:36:02;10.93;;;6.13;;
5869;SDS011;2961;47.702;9.410;2022-07-21T11:38:29;6.57;;;6.00;;
5869;SDS011;2961;47.702;9.410;2022-07-21T11:43:39;5.70;;;5.10;;
5869;SDS011;2961;47.702;9.410;2022-07-21T11:46:08;8.23;;;6.05;;
5869;SDS011;2961;47.702;9.410;2022-07-21T11:48:34;7.72;;;6.00;;
5869;SDS011;2961;47.702;9.410;2022-07-21T11:51:02;6.77;;;5.90;;
5869;SDS011;2961;47.702;9.410;2022-07-21T11:53:29;8.43;;;6.10;;
5869;SDS011;2961;47.702;9.410;2022-07-21T11:55:57;8.37;;;6.20;;
5869;SDS011;2961;47.702;9.410;2022-07-21T11:58:24;7.20;;;5.93;;
5869;SDS011;2961;47.702;9.410;2022-07-21T12:01:03;6.90;;;6.20;;
5869;SDS011;2961;47.702;9.410;2022-07-21T12:03:33;7.33;;;6.17;;
5869;SDS011;2961;47.702;9.410;2022-07-21T12:06:00;7.50;;;5.93;;
5869;SDS011;2961;47.702;9.410;2022-07-21T12:08:28;7.00;;;6.30;;
5869;SDS011;2961;47.702;9.410;2022-07-21T12:11:03;9.67;;;6.70;;
5869;SDS011;2961;47.702;9.410;2022-07-21T12:16:18;6.77;;;6.13;;
5869;SDS011;2961;47.702;9.410;2022-07-21T12:18:46;6.97;;;6.37;;
5869;SDS011;2961;47.702;9.410;2022-07-21T12:21:13;9.47;;;6.20;;
5869;SDS011;2961;47.702;9.410;2022-07-21T12:23:40;8.60;;;6.47;;
5869;SDS011;2961;47.702;9.410;2022-07-21T12:26:08;7.30;;;6.33;;
5869;SDS011;2961;47.702;9.410;2022-07-21T12:28:47;7.80;;;6.23;;
5869;SDS011;2961;47.702;9.410;2022-07-21T12:31:18;9.70;;;7.93;;
5869;SDS011;2961;47.702;9.410;2022-07-21T12:33:48;10.00;;;7.03;;
5869;SDS011;2961;47.702;9.410;2022-07-21T12:36:15;8.43;;;7.50;;
5869;SDS011;2961;47.702;9.410;2022-07-21T12:38:46;9.23;;;6.70;;
5869;SDS011;2961;47.702;9.410;2022-07-21T12:41:14;8.00;;;6.40;;
5869;SDS011;2961;47.702;9.410;2022-07-21T12:43:42;7.17;;;6.27;;
5869;SDS011;2961;47.702;9.410;2022-07-21T12:46:19;7.17;;;6.67;;
5869;SDS011;2961;47.702;9.410;2022-07-21T12:48:45;6.80;;;6.20;;
5869;SDS011;2961;47.702;9.410;2022-07-21T12:51:15;8.20;;;7.40;;
5869;SDS011;2961;47.702;9.410;2022-07-21T12:53:47;6.37;;;5.77;;
5869;SDS011;2961;47.702;9.410;2022-07-21T12:56:16;7.10;;;6.50;;
5869;SDS011;2961;47.702;9.410;2022-07-21T12:58:45;7.07;;;6.40;;
5869;SDS011;2961;47.702;9.410;2022-07-21T13:01:13;7.63;;;6.87;;
5869;SDS011;2961;47.702;9.410;2022-07-21T13:03:41;6.43;;;5.93;;
5869;SDS011;2961;47.702;9.410;2022-07-21T13:06:10;12.73;;;6.83;;
5869;SDS011;2961;47.702;9.410;2022-07-21T13:08:39;7.57;;;6.77;;
5869;SDS011;2961;47.702;9.410;2022-07-21T13:11:06;9.77;;;6.50;;
5869;SDS011;2961;47.702;9.410;2022-07-21T13:13:34;7.73;;;6.83;;
5869;SDS011;2961;47.702;9.410;2022-07-21T13:16:01;6.77;;;6.17;;
5869;SDS011;2961;47.702;9.410;2022-07-21T13:18:28;11.20;;;6.63;;
5869;SDS011;2961;47.702;9.410;2022-07-21T13:20:55;10.20;;;7.00;;
5869;SDS011;2961;47.702;9.410;2022-07-21T13:23:23;7.13;;;6.53;;
5869;SDS011;2961;47.702;9.410;2022-07-21T13:25:50;7.90;;;7.07;;
5869;SDS011;2961;47.702;9.410;2022-07-21T13:28:17;6.70;;;6.07;;
5869;SDS011;2961;47.702;9.410;2022-07-21T13:30:45;11.10;;;6.87;;
5869;SDS011;2961;47.702;9.410;2022-07-21T13:33:12;9.17;;;6.50;;
5869;SDS011;2961;47.702;9.410;2022-07-21T13:35:39;8.33;;;6.40;;
5869;SDS011;2961;47.702;9.410;2022-07-21T13:38:06;7.27;;;6.40;;
5869;SDS011;2961;47.702;9.410;2022-07-21T13:40:35;7.60;;;6.53;;
5869;SDS011;2961;47.702;9.410;2022-07-21T13:43:02;7.43;;;6.00;;
5869;SDS011;2961;47.702;9.410;2022-07-21T13:45:29;7.70;;;6.10;;
5869;SDS011;2961;47.702;9.410;2022-07-21T13:47:56;8.47;;;7.23;;
5869;SDS011;2961;47.702;9.410;2022-07-21T13:50:23;8.30;;;6.77;;
5869;SDS011;2961;47.702;9.410;2022-07-21T13:52:50;6.87;;;5.80;;
5869;SDS011;2961;47.702;9.410;2022-07-21T13:55:17;6.97;;;6.23;;
5869;SDS011;2961;47.702;9.410;2022-07-21T13:57:45;8.03;;;7.10;;
5869;SDS011;2961;47.702;9.410;2022-07-21T14:00:13;6.40;;;5.80;;
5869;SDS011;2961;47.702;9.410;2022-07-21T14:02:41;7.47;;;6.70;;
5869;SDS011;2961;47.702;9.410;2022-07-21T14:05:08;8.00;;;6.53;;
5869;SDS011;2961;47.702;9.410;2022-07-21T14:07:35;7.40;;;6.90;;
5869;SDS011;2961;47.702;9.410;2022-07-21T14:10:03;7.20;;;6.30;;
5869;SDS011;2961;47.702;9.410;2022-07-21T14:12:31;7.27;;;6.57;;
5869;SDS011;2961;47.702;9.410;2022-07-21T14:14:59;6.60;;;6.00;;
5869;SDS011;2961;47.702;9.410;2022-07-21T14:17:26;7.73;;;6.57;;
5869;SDS011;2961;47.702;9.410;2022-07-21T14:19:53;7.87;;;7.07;;
5869;SDS011;2961;47.702;9.410;2022-07-21T14:22:20;8.55;;;6.45;;
5869;SDS011;2961;47.702;9.410;2022-07-21T14:24:47;13.80;;;7.23;;
5869;SDS011;2961;47.702;9.410;2022-07-21T14:27:31;10.30;;;6.33;;
5869;SDS011;2961;47.702;9.410;2022-07-21T14:30:00;6.57;;;5.97;;
5869;SDS011;2961;47.702;9.410;2022-07-21T14:32:27;7.60;;;6.90;;
5869;SDS011;2961;47.702;9.410;2022-07-21T14:34:54;6.40;;;5.90;;
5869;SDS011;2961;47.702;9.410;2022-07-21T14:37:20;6.43;;;6.00;;
5869;SDS011;2961;47.702;9.410;2022-07-21T14:39:48;8.83;;;6.83;;
5869;SDS011;2961;47.702;9.410;2022-07-21T14:42:16;7.87;;;6.83;;
5869;SDS011;2961;47.702;9.410;2022-07-21T14:44:43;6.90;;;6.20;;
5869;SDS011;2961;47.702;9.410;2022-07-21T14:47:12;7.97;;;7.17;;
5869;SDS011;2961;47.702;9.410;2022-07-21T14:49:42;9.67;;;7.10;;
5869;SDS011;2961;47.702;9.410;2022-07-21T14:52:09;8.80;;;6.30;;
5869;SDS011;2961;47.702;9.410;2022-07-21T14:54:39;7.47;;;6.77;;
5869;SDS011;2961;47.702;9.410;2022-07-21T14:57:06;8.40;;;7.53;;
5869;SDS011;2961;47.702;9.410;2022-07-21T14:59:39;9.53;;;6.80;;
5869;SDS011;2961;47.702;9.410;2022-07-21T15:02:06;8.23;;;7.30;;
5869;SDS011;2961;47.702;9.410;2022-07-21T15:04:37;6.90;;;6.20;;
5869;SDS011;2961;47.702;9.410;2022-07-21T15:07:04;7.25;;;5.90;;
5869;SDS011;2961;47.702;9.410;2022-07-21T15:09:30;7.60;;;6.90;;
5869;SDS011;2961;47.702;9.410;2022-07-21T15:11:58;6.90;;;6.00;;
5869;SDS011;2961;47.702;9.410;2022-07-21T15:14:30;7.23;;;6.33;;
5869;SDS011;2961;47.702;9.410;2022-07-21T15:16:57;8.60;;;6.97;;
5869;SDS011;2961;47.702;9.410;2022-07-21T15:19:27;6.47;;;5.87;;
5869;SDS011;2961;47.702;9.410;2022-07-21T15:21:56;7.03;;;6.33;;
5869;SDS011;2961;47.702;9.410;2022-07-21T15:24:26;10.57;;;6.50;;
5869;SDS011;2961;47.702;9.410;2022-07-21T15:26:54;6.77;;;6.17;;